Terminal Aerodrome Forecast
Issued by NWS Wilmington, OH

Current Version | Previous Version | Graphics & Text | Print | Product List | Glossary On
Versions: 1 2 3 4 5 6 7 8 9 10 11 12 13 14 15 16 17 18 19 20 21 22 23 24 25
000
FTUS41 KILN 241200 AAA
TAFILN
TAF AMD
KILN 241242Z 2413/2512 14006KT 1SM BR SCT002 OVC080
      TEMPO 2413/2414 1/2SM FG OVC002
     FM241430 17008KT 4SM BR VCSH OVC018
     FM241600 19010KT P6SM SCT015 OVC040
     FM242000 22016G24KT P6SM -SHRA OVC012
     FM242300 25023G38KT P6SM OVC015
     FM250300 24018G28KT P6SM OVC015
     FM250900 24014G22KT P6SM VCSH OVC018=

USA.gov is the U.S. government's official web portal to all federal, state and local government web resources and services.